createdAt,value
2018-01-29T00:00:03.347Z,60.66
2018-01-29T00:02:30.902Z,61.10
2018-01-29T00:04:58.458Z,60.85
2018-01-29T00:07:25.961Z,60.81
2018-01-29T00:09:53.609Z,61.00
2018-01-29T00:12:21.113Z,61.36
2018-01-29T00:14:48.621Z,61.79
2018-01-29T00:17:16.157Z,61.76
2018-01-29T00:19:43.667Z,61.74
2018-01-29T00:22:11.476Z,61.80
2018-01-29T00:24:38.980Z,62.12
2018-01-29T00:27:06.480Z,62.13
2018-01-29T00:29:34.009Z,62.02
2018-01-29T00:32:01.517Z,61.96
2018-01-29T00:34:29.374Z,61.96
2018-01-29T00:36:56.934Z,61.70
2018-01-29T00:39:24.436Z,61.93
2018-01-29T00:41:51.965Z,62.17
2018-01-29T00:44:19.510Z,61.96
2018-01-29T00:46:47.056Z,61.53
2018-01-29T00:49:14.556Z,61.76
2018-01-29T00:51:42.083Z,61.78
2018-01-29T00:54:09.643Z,62.56
2018-01-29T00:56:37.150Z,62.56
2018-01-29T00:59:04.967Z,62.78
2018-01-29T01:01:32.465Z,63.39
2018-01-29T01:03:59.983Z,63.79
2018-01-29T01:06:27.540Z,64.26
2018-01-29T01:08:55.116Z,64.34
2018-01-29T01:11:22.837Z,65.19
2018-01-29T01:13:50.338Z,65.03
2018-01-29T01:16:17.879Z,65.20
2018-01-29T01:18:45.406Z,65.54
2018-01-29T01:21:12.912Z,65.72
2018-01-29T01:23:40.761Z,65.68
2018-01-29T01:26:08.270Z,65.58
2018-01-29T01:28:35.765Z,65.75
2018-01-29T01:31:03.347Z,66.29
2018-01-29T01:33:30.900Z,66.01
2018-01-29T01:35:58.832Z,66.06
2018-01-29T01:38:26.336Z,65.89
2018-01-29T01:40:53.840Z,66.18
2018-01-29T01:43:21.372Z,66.07
2018-01-29T01:45:48.876Z,66.17
2018-01-29T01:48:16.662Z,66.04
2018-01-29T01:50:44.161Z,65.75
2018-01-29T01:53:11.664Z,65.51
2018-01-29T01:55:39.237Z,65.19
2018-01-29T01:58:06.732Z,65.12
2018-01-29T02:00:34.265Z,65.35
2018-01-29T02:03:01.766Z,65.17
2018-01-29T02:05:29.267Z,64.92
2018-01-29T02:07:56.804Z,64.76
2018-01-29T02:10:24.312Z,64.81
2018-01-29T02:12:51.948Z,64.29
2018-01-29T02:15:19.441Z,64.54
2018-01-29T02:17:46.939Z,64.70
2018-01-29T02:20:14.465Z,64.87
2018-01-29T02:22:41.969Z,64.43
2018-01-29T02:25:09.842Z,64.36
2018-01-29T02:27:37.342Z,65.15
2018-01-29T02:30:04.859Z,64.47
2018-01-29T02:32:32.418Z,64.60
2018-01-29T02:34:59.913Z,64.86
2018-01-29T02:37:27.684Z,64.73
2018-01-29T02:39:55.194Z,64.49
2018-01-29T02:42:22.685Z,63.91
2018-01-29T02:44:50.218Z,63.88
2018-01-29T02:47:17.724Z,63.74
2018-01-29T02:49:45.537Z,64.84
2018-01-29T02:52:13.033Z,64.56
2018-01-29T02:54:40.554Z,65.17
2018-01-29T02:57:08.113Z,63.96
2018-01-29T02:59:35.629Z,63.76
2018-01-29T03:02:03.337Z,63.87
2018-01-29T03:04:30.913Z,64.12
2018-01-29T03:06:58.453Z,63.96
2018-01-29T03:09:25.974Z,63.66
2018-01-29T03:11:53.478Z,63.64
2018-01-29T03:14:21.230Z,63.84
2018-01-29T03:16:48.728Z,63.20
2018-01-29T03:19:16.228Z,63.19
2018-01-29T03:21:43.749Z,63.66
2018-01-29T03:24:11.257Z,63.35
2018-01-29T03:26:39.334Z,63.60
2018-01-29T03:29:06.897Z,63.88
2018-01-29T03:31:34.394Z,64.70
2018-01-29T03:34:01.940Z,64.67
2018-01-29T03:36:29.445Z,64.10
2018-01-29T03:38:57.312Z,64.23
2018-01-29T03:41:24.814Z,63.98
2018-01-29T03:43:52.367Z,64.65
2018-01-29T03:46:19.899Z,63.97
2018-01-29T03:48:47.393Z,64.20
2018-01-29T03:51:15.130Z,63.86
2018-01-29T03:53:42.637Z,63.54
2018-01-29T03:56:10.160Z,63.78
2018-01-29T03:58:37.685Z,63.81
2018-01-29T04:01:05.205Z,63.56
2018-01-29T04:03:32.750Z,63.46
2018-01-29T04:06:00.249Z,63.81
2018-01-29T04:08:27.749Z,64.98
2018-01-29T04:10:55.282Z,64.94
2018-01-29T04:13:22.786Z,64.50
2018-01-29T04:15:50.589Z,64.09
2018-01-29T04:18:18.112Z,64.01
2018-01-29T04:20:45.634Z,63.64
2018-01-29T04:23:13.181Z,63.69
2018-01-29T04:25:40.680Z,63.89
2018-01-29T04:28:08.309Z,64.09
2018-01-29T04:30:35.804Z,65.00
2018-01-29T04:33:03.312Z,65.18
2018-01-29T04:35:30.840Z,65.10
2018-01-29T04:37:58.345Z,64.77
2018-01-29T04:40:26.234Z,64.34
2018-01-29T04:42:53.792Z,64.82
2018-01-29T04:45:21.292Z,64.54
2018-01-29T04:47:48.869Z,64.07
2018-01-29T04:50:16.342Z,64.42
2018-01-29T04:52:44.005Z,64.41
2018-01-29T04:55:11.505Z,64.82
2018-01-29T04:57:39.002Z,65.07
2018-01-29T05:00:06.529Z,64.94
2018-01-29T05:02:34.025Z,64.74
2018-01-29T05:05:01.701Z,64.99
2018-01-29T05:07:29.197Z,64.62
2018-01-29T05:09:56.691Z,64.95
2018-01-29T05:12:24.212Z,65.23
2018-01-29T05:14:51.730Z,66.23
2018-01-29T05:17:19.291Z,65.38
2018-01-29T05:19:46.789Z,65.15
2018-01-29T05:22:14.305Z,64.90
2018-01-29T05:24:41.897Z,65.43
2018-01-29T05:27:09.429Z,64.64
2018-01-29T05:29:36.993Z,64.07
2018-01-29T05:32:04.543Z,63.67
2018-01-29T05:34:32.049Z,63.43
2018-01-29T05:37:02.095Z,63.29
2018-01-29T05:39:29.985Z,63.00
2018-01-29T05:41:57.589Z,62.99
2018-01-29T05:44:28.667Z,62.74
2018-01-29T05:46:56.383Z,62.65
2018-01-29T05:49:23.921Z,62.80
2018-01-29T05:51:51.547Z,62.71
2018-01-29T05:54:19.127Z,62.41
2018-01-29T05:56:46.688Z,62.48
2018-01-29T05:59:14.189Z,62.56
2018-01-29T06:01:41.721Z,62.43
2018-01-29T06:04:09.245Z,62.17
2018-01-29T06:06:37.129Z,62.26
2018-01-29T06:09:04.637Z,62.38
2018-01-29T06:11:32.168Z,62.42
2018-01-29T06:13:59.701Z,62.33
2018-01-29T06:16:27.215Z,62.70
2018-01-29T06:18:54.749Z,62.63
2018-01-29T06:21:22.271Z,63.52
2018-01-29T06:23:49.839Z,64.71
2018-01-29T06:26:17.412Z,63.63
2018-01-29T06:28:44.925Z,62.94
2018-01-29T06:31:12.800Z,63.28
2018-01-29T06:33:40.305Z,64.85
2018-01-29T06:36:07.839Z,65.53
2018-01-29T06:38:35.400Z,66.06
2018-01-29T06:41:02.901Z,66.06
2018-01-29T06:43:30.618Z,65.84
2018-01-29T06:45:58.231Z,65.05
2018-01-29T06:48:25.773Z,66.06
2018-01-29T06:50:53.360Z,64.45
2018-01-29T06:53:20.881Z,64.96
2018-01-29T06:55:48.406Z,64.96
2018-01-29T06:58:16.872Z,65.25
2018-01-29T07:00:44.381Z,64.74
2018-01-29T07:03:11.914Z,65.22
2018-01-29T07:05:39.418Z,64.61
2018-01-29T07:08:07.149Z,64.12
2018-01-29T07:10:34.690Z,64.29
2018-01-29T07:13:02.218Z,66.14
2018-01-29T07:15:29.753Z,65.05
2018-01-29T07:17:57.257Z,64.40
2018-01-29T07:20:25.029Z,65.00
2018-01-29T07:22:52.528Z,65.78
2018-01-29T07:25:20.045Z,63.65
2018-01-29T07:27:47.612Z,65.24
2018-01-29T07:30:15.189Z,64.58
2018-01-29T07:32:42.752Z,65.22
2018-01-29T07:35:10.257Z,64.39
2018-01-29T07:37:37.760Z,64.02
2018-01-29T07:40:05.297Z,63.30
2018-01-29T07:42:32.873Z,63.56
2018-01-29T07:45:00.483Z,63.13
2018-01-29T07:47:28.002Z,62.90
2018-01-29T07:49:55.517Z,63.48
2018-01-29T07:52:23.071Z,61.92
2018-01-29T07:54:50.590Z,62.77
2018-01-29T07:57:18.583Z,63.85
2018-01-29T07:59:46.093Z,63.48
2018-01-29T08:02:13.637Z,62.10
2018-01-29T08:04:41.196Z,62.04
2018-01-29T08:07:08.707Z,62.42
2018-01-29T08:09:36.745Z,61.63
2018-01-29T08:12:04.284Z,62.11
2018-01-29T08:14:32.047Z,62.09
2018-01-29T08:16:59.594Z,62.41
2018-01-29T08:19:27.103Z,61.82
2018-01-29T08:21:54.829Z,61.90
2018-01-29T08:24:22.388Z,60.87
2018-01-29T08:26:49.906Z,60.93
2018-01-29T08:29:17.454Z,60.70
2018-01-29T08:31:46.005Z,59.99
2018-01-29T08:34:13.751Z,59.34
2018-01-29T08:36:41.261Z,59.04
2018-01-29T08:39:08.769Z,58.16
2018-01-29T08:41:36.339Z,58.42
2018-01-29T08:44:03.857Z,58.78
2018-01-29T08:46:31.649Z,57.83
2018-01-29T08:48:59.178Z,58.12
2018-01-29T08:51:26.702Z,59.00
2018-01-29T08:53:54.267Z,59.25
2018-01-29T08:56:21.786Z,58.58
2018-01-29T08:58:49.525Z,59.79
2018-01-29T09:01:17.059Z,58.94
2018-01-29T09:03:44.579Z,58.52
2018-01-29T09:06:12.123Z,58.81
2018-01-29T09:08:39.689Z,60.66
2018-01-29T09:11:07.522Z,59.17
2018-01-29T09:13:35.039Z,58.23
2018-01-29T09:16:02.573Z,58.43
2018-01-29T09:18:30.224Z,56.40
2018-01-29T09:20:57.742Z,56.25
2018-01-29T09:23:25.437Z,55.69
2018-01-29T09:25:52.959Z,54.88
2018-01-29T09:28:20.486Z,54.81
2018-01-29T09:30:48.039Z,53.33
2018-01-29T09:33:15.563Z,52.45
2018-01-29T09:35:43.360Z,52.56
2018-01-29T09:38:10.801Z,52.68
2018-01-29T09:40:38.368Z,53.54
2018-01-29T09:43:05.946Z,47.63
2018-01-29T09:45:33.457Z,41.92
2018-01-29T09:48:00.999Z,43.20
2018-01-29T09:50:28.510Z,45.53
2018-01-29T09:52:56.029Z,47.93
2018-01-29T09:55:23.563Z,50.81
2018-01-29T09:57:51.071Z,51.97
2018-01-29T10:00:18.833Z,52.43
2018-01-29T10:02:46.392Z,52.66
2018-01-29T10:05:13.897Z,51.90
2018-01-29T10:07:41.451Z,51.81
2018-01-29T10:10:08.979Z,51.54
2018-01-29T10:12:36.529Z,51.32
2018-01-29T10:15:04.038Z,50.63
2018-01-29T10:17:31.548Z,50.44
2018-01-29T10:19:59.069Z,50.35
2018-01-29T10:22:26.581Z,50.77
2018-01-29T10:24:54.322Z,51.00
2018-01-29T10:27:21.821Z,49.43
2018-01-29T10:29:49.325Z,48.45
2018-01-29T10:32:19.645Z,48.84
2018-01-29T10:34:50.660Z,49.28
2018-01-29T10:37:21.225Z,48.93
2018-01-29T10:39:48.778Z,48.50
2018-01-29T10:42:16.308Z,48.69
2018-01-29T10:44:43.820Z,50.54
2018-01-29T10:47:11.368Z,50.50
2018-01-29T10:49:38.865Z,50.58
2018-01-29T10:52:06.381Z,50.34
2018-01-29T10:54:33.941Z,49.01
2018-01-29T10:57:01.439Z,48.72
2018-01-29T10:59:28.974Z,48.31
2018-01-29T11:02:02.367Z,48.44
2018-01-29T11:04:29.911Z,48.83
2018-01-29T11:06:57.427Z,48.14
2018-01-29T11:09:24.956Z,48.07
2018-01-29T11:11:52.511Z,48.24
2018-01-29T11:14:20.200Z,47.45
2018-01-29T11:16:47.709Z,47.06
2018-01-29T11:19:15.212Z,46.61
2018-01-29T11:21:42.927Z,46.07
2018-01-29T11:24:10.897Z,45.25
2018-01-29T11:26:38.456Z,45.11
2018-01-29T11:29:06.016Z,45.37
2018-01-29T11:31:33.519Z,45.61
2018-01-29T11:34:01.051Z,45.30
2018-01-29T11:36:28.640Z,44.91
2018-01-29T11:38:56.660Z,44.57
2018-01-29T11:41:24.632Z,45.08
2018-01-29T11:43:52.133Z,45.43
2018-01-29T11:46:19.665Z,45.20
2018-01-29T11:48:47.188Z,44.59
2018-01-29T11:51:14.969Z,43.96
2018-01-29T11:53:42.529Z,43.45
2018-01-29T11:56:10.034Z,42.93
2018-01-29T11:58:37.562Z,42.37
2018-01-29T12:01:05.104Z,42.94
2018-01-29T12:03:32.678Z,42.02
2018-01-29T12:06:00.180Z,42.20
2018-01-29T12:08:27.679Z,42.89
2018-01-29T12:10:55.206Z,43.12
2018-01-29T12:13:22.724Z,42.69
2018-01-29T12:15:50.256Z,42.18
2018-01-29T12:18:17.757Z,43.01
2018-01-29T12:20:45.256Z,42.83
2018-01-29T12:23:12.784Z,43.75
2018-01-29T12:25:40.297Z,43.16
2018-01-29T12:28:08.249Z,40.96
2018-01-29T12:30:35.762Z,40.42
2018-01-29T12:33:03.266Z,41.44
2018-01-29T12:35:30.831Z,41.84
2018-01-29T12:37:58.337Z,41.68
2018-01-29T12:40:26.157Z,41.16
2018-01-29T12:42:59.836Z,39.84
2018-01-29T12:45:29.242Z,38.84
2018-01-29T12:48:10.404Z,41.11
2018-01-29T12:50:40.841Z,42.09
2018-01-29T12:53:11.825Z,44.21
2018-01-29T12:55:45.608Z,44.94
2018-01-29T12:58:15.171Z,46.67
2018-01-29T13:00:43.193Z,46.46
2018-01-29T13:03:17.050Z,46.21
2018-01-29T13:05:48.297Z,46.44
2018-01-29T13:08:36.990Z,46.06
2018-01-29T13:11:15.292Z,45.37
2018-01-29T13:13:48.694Z,46.51
2018-01-29T13:16:18.729Z,45.90
2018-01-29T13:18:50.962Z,45.74
2018-01-29T13:21:22.780Z,45.58
2018-01-29T13:23:51.648Z,45.78
2018-01-29T13:26:23.428Z,46.28
2018-01-29T13:28:55.273Z,46.42
2018-01-29T13:31:28.638Z,46.76
2018-01-29T13:33:57.536Z,46.93
2018-01-29T13:36:30.545Z,46.47
2018-01-29T13:38:58.900Z,46.57
2018-01-29T13:41:26.409Z,46.59
2018-01-29T13:43:54.452Z,46.28
2018-01-29T13:46:24.133Z,45.88
2018-01-29T13:48:51.628Z,46.48
2018-01-29T13:51:19.562Z,46.56
2018-01-29T13:53:50.528Z,46.09
2018-01-29T13:56:29.920Z,46.25
2018-01-29T13:58:59.260Z,46.53
2018-01-29T14:01:46.464Z,46.42
2018-01-29T14:04:18.777Z,46.15
2018-01-29T14:06:48.448Z,46.50
2018-01-29T14:09:15.996Z,45.80
2018-01-29T14:11:49.369Z,43.73
2018-01-29T14:14:16.864Z,44.80
2018-01-29T14:16:45.904Z,45.43
2018-01-29T14:19:14.370Z,45.98
2018-01-29T14:21:41.933Z,46.16
2018-01-29T14:24:18.246Z,46.46
2018-01-29T14:26:45.752Z,47.36
2018-01-29T14:29:14.269Z,47.61
2018-01-29T14:31:47.173Z,47.07
2018-01-29T14:34:19.753Z,46.89
2018-01-29T14:36:51.713Z,46.46
2018-01-29T14:39:23.136Z,46.56
2018-01-29T14:41:56.838Z,46.52
2018-01-29T14:44:40.872Z,47.02
2018-01-29T14:47:10.469Z,47.16
2018-01-29T14:49:40.235Z,47.79
2018-01-29T14:52:30.522Z,48.10
2018-01-29T14:54:58.081Z,48.32
2018-01-29T14:57:25.877Z,49.21
2018-01-29T14:59:53.388Z,49.89
2018-01-29T15:02:21.852Z,49.96
2018-01-29T15:04:49.389Z,50.35
2018-01-29T15:07:17.720Z,50.28
2018-01-29T15:09:45.456Z,50.77
2018-01-29T15:12:12.972Z,50.67
2018-01-29T15:14:41.406Z,51.33
2018-01-29T15:17:12.220Z,51.67
2018-01-29T15:19:40.314Z,50.94
2018-01-29T15:22:14.830Z,50.56
2018-01-29T15:24:43.385Z,51.29
2018-01-29T15:27:10.901Z,50.34
2018-01-29T15:29:38.448Z,50.02
2018-01-29T15:32:08.998Z,50.17
2018-01-29T15:34:36.639Z,50.40
2018-01-29T15:37:14.813Z,50.38
2018-01-29T15:39:45.585Z,51.06
2018-01-29T15:42:19.458Z,51.72
2018-01-29T15:44:47.152Z,50.95
2018-01-29T15:47:14.711Z,51.48
2018-01-29T15:49:42.226Z,52.38
2018-01-29T15:52:09.751Z,53.50
2018-01-29T15:54:37.294Z,53.27
2018-01-29T15:57:04.899Z,53.14
2018-01-29T15:59:32.814Z,53.55
2018-01-29T16:02:00.686Z,53.56
2018-01-29T16:04:28.186Z,53.10
2018-01-29T16:06:56.522Z,53.09
2018-01-29T16:09:24.068Z,52.59
2018-01-29T16:11:51.640Z,52.82
2018-01-29T16:14:19.484Z,52.79
2018-01-29T16:16:46.993Z,52.34
2018-01-29T16:19:15.346Z,52.79
2018-01-29T16:21:42.894Z,54.40
2018-01-29T16:24:10.451Z,54.14
2018-01-29T16:26:38.018Z,53.42
2018-01-29T16:29:05.572Z,54.33
2018-01-29T16:31:33.546Z,54.68
2018-01-29T16:34:01.100Z,53.93
2018-01-29T16:36:28.658Z,54.16
2018-01-29T16:38:56.161Z,54.11
2018-01-29T16:41:23.896Z,53.80
2018-01-29T16:43:52.301Z,53.31
2018-01-29T16:46:19.919Z,53.63
2018-01-29T16:48:47.661Z,53.20
2018-01-29T16:51:15.245Z,53.62
2018-01-29T16:53:43.094Z,52.88
2018-01-29T16:56:14.671Z,53.11
2018-01-29T16:58:42.327Z,52.95
2018-01-29T17:01:11.242Z,52.21
2018-01-29T17:03:52.332Z,52.14
2018-01-29T17:06:19.851Z,52.03
2018-01-29T17:08:47.371Z,51.55
2018-01-29T17:11:14.920Z,51.75
2018-01-29T17:13:47.814Z,51.54
2018-01-29T17:16:18.892Z,51.75
2018-01-29T17:18:48.215Z,52.84
2018-01-29T17:21:22.204Z,52.25
2018-01-29T17:23:50.717Z,52.61
2018-01-29T17:26:18.242Z,52.65
2018-01-29T17:28:55.685Z,52.11
2018-01-29T17:31:26.029Z,51.58
2018-01-29T17:33:53.584Z,52.17
2018-01-29T17:36:21.097Z,51.97
2018-01-29T17:38:48.917Z,51.48
2018-01-29T17:41:17.592Z,52.17
2018-01-29T17:43:45.104Z,52.33
2018-01-29T17:46:12.847Z,52.98
2018-01-29T17:48:40.407Z,52.30
2018-01-29T17:51:07.970Z,51.93
2018-01-29T17:53:35.525Z,51.94
2018-01-29T17:56:03.084Z,51.94
2018-01-29T17:58:30.596Z,53.00
2018-01-29T18:00:58.169Z,52.32
2018-01-29T18:03:25.675Z,52.55
2018-01-29T18:05:53.324Z,52.03
2018-01-29T18:08:20.985Z,51.52
2018-01-29T18:10:48.722Z,51.77
2018-01-29T18:13:16.398Z,52.40
2018-01-29T18:15:44.070Z,52.84
2018-01-29T18:18:12.812Z,52.10
2018-01-29T18:20:40.459Z,51.86
2018-01-29T18:23:08.282Z,51.80
2018-01-29T18:25:35.953Z,52.95
2018-01-29T18:28:03.811Z,52.76
2018-01-29T18:30:31.506Z,52.61
2018-01-29T18:32:59.134Z,53.08
2018-01-29T18:35:27.021Z,52.07
2018-01-29T18:37:54.762Z,52.28
2018-01-29T18:40:22.576Z,53.10
2018-01-29T18:42:50.292Z,53.62
2018-01-29T18:45:19.387Z,52.83
2018-01-29T18:48:03.434Z,52.79
2018-01-29T18:50:31.094Z,53.41
2018-01-29T18:53:03.057Z,52.27
2018-01-29T18:55:35.871Z,52.37
2018-01-29T18:58:03.602Z,51.87
2018-01-29T19:00:31.469Z,51.82
2018-01-29T19:02:59.246Z,51.65
2018-01-29T19:05:29.365Z,51.88
2018-01-29T19:08:01.881Z,52.68
2018-01-29T19:10:35.956Z,51.92
2018-01-29T19:13:03.685Z,52.40
2018-01-29T19:15:46.406Z,52.45
2018-01-29T19:18:13.992Z,53.17
2018-01-29T19:20:47.892Z,53.20
2018-01-29T19:23:19.667Z,53.13
2018-01-29T19:25:47.421Z,53.89
2018-01-29T19:28:15.192Z,53.32
2018-01-29T19:30:45.092Z,53.04
2018-01-29T19:33:18.583Z,53.62
2018-01-29T19:36:09.861Z,53.58
2018-01-29T19:38:38.176Z,53.54
2018-01-29T19:41:07.275Z,52.86
2018-01-29T19:43:36.674Z,53.14
2018-01-29T19:46:08.637Z,53.12
2018-01-29T19:48:37.731Z,52.49
2018-01-29T19:51:06.111Z,53.37
2018-01-29T19:53:34.794Z,53.88
2018-01-29T19:56:19.249Z,54.91
2018-01-29T19:58:52.362Z,54.49
2018-01-29T20:01:21.339Z,55.24
2018-01-29T20:04:04.150Z,54.28
2018-01-29T20:06:40.021Z,54.49
2018-01-29T20:09:08.327Z,55.39
2018-01-29T20:11:36.758Z,55.11
2018-01-29T20:14:06.306Z,55.32
2018-01-29T20:16:37.622Z,55.59
2018-01-29T20:19:06.225Z,56.11
2018-01-29T20:21:43.558Z,56.06
2018-01-29T20:24:15.035Z,56.65
2018-01-29T20:26:44.767Z,55.98
2018-01-29T20:29:30.243Z,56.06
2018-01-29T20:32:05.062Z,55.82
2018-01-29T20:37:27.411Z,54.42
2018-01-29T20:39:55.279Z,54.58
2018-01-29T20:42:27.341Z,55.07
2018-01-29T20:45:06.164Z,54.39
2018-01-29T20:47:42.140Z,54.44
2018-01-29T20:50:11.230Z,55.27
2018-01-29T20:52:40.619Z,54.70
2018-01-29T20:55:19.144Z,55.23
2018-01-29T20:57:47.826Z,54.91
2018-01-29T21:00:18.658Z,54.34
2018-01-29T21:02:53.387Z,54.72
2018-01-29T21:05:24.950Z,54.83
2018-01-29T21:07:52.803Z,55.58
2018-01-29T21:10:23.639Z,55.54
2018-01-29T21:12:51.545Z,55.87
2018-01-29T21:15:20.944Z,55.58
2018-01-29T21:18:02.197Z,54.96
2018-01-29T21:20:37.326Z,54.18
2018-01-29T21:23:07.960Z,54.49
2018-01-29T21:25:40.460Z,56.25
2018-01-29T21:28:14.633Z,54.97
2018-01-29T21:30:51.053Z,55.07
2018-01-29T21:33:18.984Z,56.07
2018-01-29T21:35:55.142Z,56.01
2018-01-29T21:38:25.788Z,55.84
2018-01-29T21:40:53.536Z,56.24
2018-01-29T21:43:23.175Z,56.09
2018-01-29T21:45:50.741Z,55.74
2018-01-29T21:48:18.263Z,56.22
2018-01-29T21:50:59.344Z,55.98
2018-01-29T21:53:29.900Z,56.26
2018-01-29T21:55:57.728Z,56.77
2018-01-29T21:58:26.320Z,55.42
2018-01-29T22:01:11.158Z,55.95
2018-01-29T22:03:38.843Z,55.44
2018-01-29T22:06:17.318Z,55.84
2018-01-29T22:08:45.009Z,56.39
2018-01-29T22:11:14.762Z,56.63
2018-01-29T22:13:42.391Z,57.42
2018-01-29T22:16:11.599Z,58.48
2018-01-29T22:18:42.850Z,59.58
2018-01-29T22:21:12.912Z,58.72
2018-01-29T22:23:40.437Z,60.22
2018-01-29T22:26:07.984Z,60.21
2018-01-29T22:28:37.164Z,59.56
2018-01-29T22:31:04.933Z,59.22
2018-01-29T22:33:35.399Z,60.20
2018-01-29T22:36:03.477Z,62.49
2018-01-29T22:38:35.644Z,61.77
2018-01-29T22:41:07.939Z,61.28
2018-01-29T22:43:35.468Z,60.82
2018-01-29T22:46:03.122Z,60.94
2018-01-29T22:48:30.660Z,61.13
2018-01-29T22:50:58.209Z,61.14
2018-01-29T22:53:25.765Z,61.56
2018-01-29T22:55:53.273Z,60.84
2018-01-29T22:58:20.987Z,61.62
2018-01-29T23:00:48.548Z,61.54
2018-01-29T23:03:16.049Z,61.83
2018-01-29T23:05:43.576Z,60.74
2018-01-29T23:08:11.119Z,60.28
2018-01-29T23:10:38.710Z,61.83
2018-01-29T23:13:07.033Z,61.96
2018-01-29T23:15:34.568Z,62.70
2018-01-29T23:18:02.073Z,62.17
2018-01-29T23:20:29.631Z,62.46
2018-01-29T23:22:57.129Z,62.47
2018-01-29T23:25:24.694Z,62.53
2018-01-29T23:27:52.204Z,62.71
2018-01-29T23:30:19.728Z,62.26
2018-01-29T23:32:47.243Z,63.42
2018-01-29T23:35:14.986Z,63.10
2018-01-29T23:37:42.499Z,61.38
2018-01-29T23:40:10.440Z,60.84
2018-01-29T23:42:37.971Z,61.34
2018-01-29T23:45:20.912Z,62.04
2018-01-29T23:47:48.449Z,62.61
2018-01-29T23:50:21.436Z,63.19
2018-01-29T23:52:51.042Z,62.11
2018-01-29T23:55:19.504Z,64.00
2018-01-29T23:57:47.148Z,62.99
